UNGO2: Muddy Boggy, Unger, OK

Data processed at Mon Apr 24 2017 21:48


All information presented herein is the property of the government of the United States of America and may be revised or deleted at any time without prior notice.
Dissemination of this information without the expressed written consent of the Public Affairs Office, Tulsa District U.S. Army Corps of Engineers is strictly prohibited.
These data are gathered electronically and, as presented, have not undergone any form of quality control. These data are not guaranteed to be valid or correct.
Go to home page.
Go to station list.
Go to station map.

Upstream stations:

Downstream station:
Previous Day
Next Day
Current Day
    
SHEF ID:       UNGO2     Muddy Boggy Creek near Unger, OK
STATION TYPE:  

               PRECIP     STAGE  STAGE(2)  RIV-FLOW  BAT-LOAD
                   in        ft        ft       cfs      volt
              Ccp-Rev   Ccp-Rev   Ccp-Rev   Ccp-Rev   Ccp-Rev
(US/Central)
04/24 00:00      0.00     12.63      8.78       775     12.83
04/24 01:00      0.00     12.56      8.78       758     12.77
04/24 02:00      0.00     12.49      8.78       744     12.77
04/24 03:00      0.00     12.42      8.78       728     12.71
04/24 04:00      0.00     12.34      8.78       712     12.71
04/24 05:00      0.00     12.27      8.78       696     12.71
04/24 06:00      0.00     12.18      8.78       678     12.65
04/24 07:00      0.00     12.11      8.78       662     12.65
04/24 08:00      0.00     12.03      8.78       645     12.71
04/24 09:00      0.00     11.96      8.78       632     13.48
04/24 10:00      0.00     11.88      8.78       615     13.53
04/24 11:00      0.00     11.80      8.78       600     13.59
04/24 12:00      0.00     11.73      8.80       585     13.65
04/24 13:00      0.00     11.65      8.80       569     13.53
04/24 14:00      0.00     11.59      8.78       558     13.48
04/24 15:00      0.00     11.51      8.80       542     13.59
04/24 16:00      0.00     11.43      8.78       527     13.53
04/24 17:00      0.00     11.36      8.80       513     13.42
04/24 18:00      0.00     11.30      8.78       501     13.36
04/24 19:00      0.00     11.23      8.78       489     13.36
04/24 20:00      0.00     11.17      8.78       477     13.18
04/24 21:00      0.00     11.11      8.78      ----     12.95
04/24 22:00      ----      ----      ----      ----      ----
04/24 23:00      ----      ----      ----      ----      ----